sensor_id;sensor_type;location;lat;lon;timestamp;P1;durP1;ratioP1;P2;durP2;ratioP2
27977;SDS011;15314;49.248;6.968;2023-07-16T00:00:58;8.30;;;7.70;;
27977;SDS011;15314;49.248;6.968;2023-07-16T00:01:59;8.57;;;7.65;;
27977;SDS011;15314;49.248;6.968;2023-07-16T00:02:59;7.90;;;7.30;;
27977;SDS011;15314;49.248;6.968;2023-07-16T00:04:00;8.15;;;7.60;;
27977;SDS011;15314;49.248;6.968;2023-07-16T00:05:01;8.88;;;8.07;;
27977;SDS011;15314;49.248;6.968;2023-07-16T00:06:01;8.15;;;7.55;;
27977;SDS011;15314;49.248;6.968;2023-07-16T00:07:02;8.60;;;7.80;;
27977;SDS011;15314;49.248;6.968;2023-07-16T00:08:03;8.63;;;7.70;;
27977;SDS011;15314;49.248;6.968;2023-07-16T00:09:04;8.25;;;7.60;;
27977;SDS011;15314;49.248;6.968;2023-07-16T00:10:04;9.70;;;7.85;;
27977;SDS011;15314;49.248;6.968;2023-07-16T00:11:05;8.70;;;7.80;;
27977;SDS011;15314;49.248;6.968;2023-07-16T00:12:06;8.27;;;7.68;;
27977;SDS011;15314;49.248;6.968;2023-07-16T00:13:07;7.90;;;7.30;;
27977;SDS011;15314;49.248;6.968;2023-07-16T00:14:09;8.00;;;7.35;;
27977;SDS011;15314;49.248;6.968;2023-07-16T00:15:10;8.35;;;7.57;;
27977;SDS011;15314;49.248;6.968;2023-07-16T00:16:11;8.20;;;7.55;;
27977;SDS011;15314;49.248;6.968;2023-07-16T00:17:13;7.93;;;7.30;;
27977;SDS011;15314;49.248;6.968;2023-07-16T00:18:13;8.07;;;7.47;;
27977;SDS011;15314;49.248;6.968;2023-07-16T00:19:14;8.23;;;7.63;;
27977;SDS011;15314;49.248;6.968;2023-07-16T00:20:15;8.63;;;7.93;;
27977;SDS011;15314;49.248;6.968;2023-07-16T00:21:15;7.90;;;7.40;;
27977;SDS011;15314;49.248;6.968;2023-07-16T00:22:16;8.63;;;7.80;;
27977;SDS011;15314;49.248;6.968;2023-07-16T00:23:17;8.30;;;7.60;;
27977;SDS011;15314;49.248;6.968;2023-07-16T00:24:17;8.05;;;7.50;;
27977;SDS011;15314;49.248;6.968;2023-07-16T00:25:18;8.43;;;7.93;;
27977;SDS011;15314;49.248;6.968;2023-07-16T00:26:19;8.57;;;7.90;;
27977;SDS011;15314;49.248;6.968;2023-07-16T00:27:19;8.73;;;7.30;;
27977;SDS011;15314;49.248;6.968;2023-07-16T00:28:20;8.38;;;7.75;;
27977;SDS011;15314;49.248;6.968;2023-07-16T00:29:21;7.93;;;7.15;;
27977;SDS011;15314;49.248;6.968;2023-07-16T00:30:21;8.73;;;8.02;;
27977;SDS011;15314;49.248;6.968;2023-07-16T00:31:22;9.35;;;7.82;;
27977;SDS011;15314;49.248;6.968;2023-07-16T00:32:23;7.90;;;7.22;;
27977;SDS011;15314;49.248;6.968;2023-07-16T00:33:24;8.43;;;7.70;;
27977;SDS011;15314;49.248;6.968;2023-07-16T00:34:24;7.82;;;7.20;;
27977;SDS011;15314;49.248;6.968;2023-07-16T00:35:25;8.38;;;7.50;;
27977;SDS011;15314;49.248;6.968;2023-07-16T00:36:26;7.82;;;7.30;;
27977;SDS011;15314;49.248;6.968;2023-07-16T00:37:26;8.57;;;7.82;;
27977;SDS011;15314;49.248;6.968;2023-07-16T00:38:27;8.27;;;7.70;;
27977;SDS011;15314;49.248;6.968;2023-07-16T00:39:28;8.88;;;8.23;;
27977;SDS011;15314;49.248;6.968;2023-07-16T00:40:29;8.88;;;8.02;;
27977;SDS011;15314;49.248;6.968;2023-07-16T00:41:30;8.77;;;7.88;;
27977;SDS011;15314;49.248;6.968;2023-07-16T00:42:31;8.65;;;7.93;;
27977;SDS011;15314;49.248;6.968;2023-07-16T00:43:31;8.55;;;7.88;;
27977;SDS011;15314;49.248;6.968;2023-07-16T00:44:32;10.15;;;8.23;;
27977;SDS011;15314;49.248;6.968;2023-07-16T00:45:33;8.32;;;7.72;;
27977;SDS011;15314;49.248;6.968;2023-07-16T00:46:33;8.63;;;7.93;;
27977;SDS011;15314;49.248;6.968;2023-07-16T00:47:34;8.10;;;7.50;;
27977;SDS011;15314;49.248;6.968;2023-07-16T00:48:35;8.98;;;8.15;;
27977;SDS011;15314;49.248;6.968;2023-07-16T00:49:36;8.32;;;7.63;;
27977;SDS011;15314;49.248;6.968;2023-07-16T00:50:38;7.65;;;7.25;;
27977;SDS011;15314;49.248;6.968;2023-07-16T00:51:41;8.45;;;7.75;;
27977;SDS011;15314;49.248;6.968;2023-07-16T00:52:42;8.73;;;8.05;;
27977;SDS011;15314;49.248;6.968;2023-07-16T00:53:44;8.35;;;7.65;;
27977;SDS011;15314;49.248;6.968;2023-07-16T00:54:45;8.43;;;7.63;;
27977;SDS011;15314;49.248;6.968;2023-07-16T00:55:46;8.95;;;8.05;;
27977;SDS011;15314;49.248;6.968;2023-07-16T00:56:46;9.10;;;8.23;;
27977;SDS011;15314;49.248;6.968;2023-07-16T00:57:47;8.85;;;8.13;;
27977;SDS011;15314;49.248;6.968;2023-07-16T00:58:48;8.80;;;8.10;;
27977;SDS011;15314;49.248;6.968;2023-07-16T00:59:49;7.90;;;7.40;;
27977;SDS011;15314;49.248;6.968;2023-07-16T01:00:49;9.10;;;8.23;;
27977;SDS011;15314;49.248;6.968;2023-07-16T01:01:50;9.18;;;8.23;;
27977;SDS011;15314;49.248;6.968;2023-07-16T01:02:51;8.80;;;8.00;;
27977;SDS011;15314;49.248;6.968;2023-07-16T01:03:51;7.80;;;7.25;;
27977;SDS011;15314;49.248;6.968;2023-07-16T01:04:52;8.82;;;8.10;;
27977;SDS011;15314;49.248;6.968;2023-07-16T01:06:55;8.88;;;8.18;;
27977;SDS011;15314;49.248;6.968;2023-07-16T01:08:02;8.48;;;7.88;;
27977;SDS011;15314;49.248;6.968;2023-07-16T01:09:11;9.18;;;8.48;;
27977;SDS011;15314;49.248;6.968;2023-07-16T01:10:18;8.57;;;7.78;;
27977;SDS011;15314;49.248;6.968;2023-07-16T01:11:18;8.73;;;7.78;;
27977;SDS011;15314;49.248;6.968;2023-07-16T01:12:20;11.02;;;7.75;;
27977;SDS011;15314;49.248;6.968;2023-07-16T01:13:22;9.50;;;8.45;;
27977;SDS011;15314;49.248;6.968;2023-07-16T01:14:24;8.93;;;8.07;;
27977;SDS011;15314;49.248;6.968;2023-07-16T01:15:25;8.68;;;8.02;;
27977;SDS011;15314;49.248;6.968;2023-07-16T01:16:25;9.25;;;8.40;;
27977;SDS011;15314;49.248;6.968;2023-07-16T01:17:27;8.32;;;7.57;;
27977;SDS011;15314;49.248;6.968;2023-07-16T01:18:28;8.98;;;8.30;;
27977;SDS011;15314;49.248;6.968;2023-07-16T01:19:28;9.38;;;8.10;;
27977;SDS011;15314;49.248;6.968;2023-07-16T01:20:29;9.05;;;8.25;;
27977;SDS011;15314;49.248;6.968;2023-07-16T01:21:44;9.23;;;8.30;;
27977;SDS011;15314;49.248;6.968;2023-07-16T01:23:04;9.65;;;7.88;;
27977;SDS011;15314;49.248;6.968;2023-07-16T01:24:13;8.73;;;8.05;;
27977;SDS011;15314;49.248;6.968;2023-07-16T01:28:32;9.07;;;8.40;;
27977;SDS011;15314;49.248;6.968;2023-07-16T01:29:42;10.45;;;8.48;;
27977;SDS011;15314;49.248;6.968;2023-07-16T01:30:50;9.52;;;8.65;;
27977;SDS011;15314;49.248;6.968;2023-07-16T01:31:52;8.73;;;7.95;;
27977;SDS011;15314;49.248;6.968;2023-07-16T01:32:56;9.32;;;8.40;;
27977;SDS011;15314;49.248;6.968;2023-07-16T01:33:57;9.00;;;8.18;;
27977;SDS011;15314;49.248;6.968;2023-07-16T01:34:59;9.05;;;8.13;;
27977;SDS011;15314;49.248;6.968;2023-07-16T01:36:00;9.02;;;8.20;;
27977;SDS011;15314;49.248;6.968;2023-07-16T01:37:02;11.68;;;9.25;;
27977;SDS011;15314;49.248;6.968;2023-07-16T01:38:04;10.10;;;8.40;;
27977;SDS011;15314;49.248;6.968;2023-07-16T01:39:04;9.80;;;8.93;;
27977;SDS011;15314;49.248;6.968;2023-07-16T01:40:06;8.95;;;8.18;;
27977;SDS011;15314;49.248;6.968;2023-07-16T01:41:09;10.07;;;9.13;;
27977;SDS011;15314;49.248;6.968;2023-07-16T01:42:10;8.98;;;8.18;;
27977;SDS011;15314;49.248;6.968;2023-07-16T01:43:12;9.43;;;8.57;;
27977;SDS011;15314;49.248;6.968;2023-07-16T01:44:13;9.90;;;8.90;;
27977;SDS011;15314;49.248;6.968;2023-07-16T01:45:14;9.32;;;8.52;;
27977;SDS011;15314;49.248;6.968;2023-07-16T01:46:14;10.55;;;8.55;;
27977;SDS011;15314;49.248;6.968;2023-07-16T01:47:20;9.98;;;8.95;;
27977;SDS011;15314;49.248;6.968;2023-07-16T01:48:30;9.05;;;8.27;;
27977;SDS011;15314;49.248;6.968;2023-07-16T01:49:31;10.35;;;8.10;;
27977;SDS011;15314;49.248;6.968;2023-07-16T01:50:32;10.05;;;8.50;;
27977;SDS011;15314;49.248;6.968;2023-07-16T01:51:33;9.10;;;8.35;;
27977;SDS011;15314;49.248;6.968;2023-07-16T01:52:34;9.55;;;8.75;;
27977;SDS011;15314;49.248;6.968;2023-07-16T01:53:34;11.25;;;8.50;;
27977;SDS011;15314;49.248;6.968;2023-07-16T01:54:35;11.57;;;9.20;;
27977;SDS011;15314;49.248;6.968;2023-07-16T01:55:36;9.40;;;8.45;;
27977;SDS011;15314;49.248;6.968;2023-07-16T01:56:37;8.73;;;7.90;;
27977;SDS011;15314;49.248;6.968;2023-07-16T01:57:37;10.73;;;9.60;;
27977;SDS011;15314;49.248;6.968;2023-07-16T01:58:38;9.32;;;8.55;;
27977;SDS011;15314;49.248;6.968;2023-07-16T01:59:39;15.70;;;9.00;;
27977;SDS011;15314;49.248;6.968;2023-07-16T02:00:40;10.32;;;8.90;;
27977;SDS011;15314;49.248;6.968;2023-07-16T02:01:40;9.27;;;8.48;;
27977;SDS011;15314;49.248;6.968;2023-07-16T02:02:41;10.70;;;8.15;;
27977;SDS011;15314;49.248;6.968;2023-07-16T02:03:42;9.45;;;8.65;;
27977;SDS011;15314;49.248;6.968;2023-07-16T02:04:42;20.55;;;9.20;;
27977;SDS011;15314;49.248;6.968;2023-07-16T02:05:43;9.05;;;8.13;;
27977;SDS011;15314;49.248;6.968;2023-07-16T02:06:44;11.85;;;8.70;;
27977;SDS011;15314;49.248;6.968;2023-07-16T02:07:44;9.40;;;8.45;;
27977;SDS011;15314;49.248;6.968;2023-07-16T02:08:45;9.38;;;8.57;;
27977;SDS011;15314;49.248;6.968;2023-07-16T02:09:46;10.07;;;9.00;;
27977;SDS011;15314;49.248;6.968;2023-07-16T02:10:47;9.45;;;8.60;;
27977;SDS011;15314;49.248;6.968;2023-07-16T02:11:48;9.30;;;8.60;;
27977;SDS011;15314;49.248;6.968;2023-07-16T02:12:49;11.07;;;9.00;;
27977;SDS011;15314;49.248;6.968;2023-07-16T02:13:50;9.43;;;8.73;;
27977;SDS011;15314;49.248;6.968;2023-07-16T02:14:51;11.65;;;8.60;;
27977;SDS011;15314;49.248;6.968;2023-07-16T02:15:51;11.25;;;8.68;;
27977;SDS011;15314;49.248;6.968;2023-07-16T02:16:52;9.50;;;8.43;;
27977;SDS011;15314;49.248;6.968;2023-07-16T02:17:53;9.35;;;8.50;;
27977;SDS011;15314;49.248;6.968;2023-07-16T02:18:54;10.73;;;9.10;;
27977;SDS011;15314;49.248;6.968;2023-07-16T02:19:54;9.38;;;8.50;;
27977;SDS011;15314;49.248;6.968;2023-07-16T02:20:55;10.20;;;8.65;;
27977;SDS011;15314;49.248;6.968;2023-07-16T02:21:56;11.38;;;8.65;;
27977;SDS011;15314;49.248;6.968;2023-07-16T02:22:56;10.52;;;9.35;;
27977;SDS011;15314;49.248;6.968;2023-07-16T02:23:57;11.80;;;8.60;;
27977;SDS011;15314;49.248;6.968;2023-07-16T02:24:58;9.50;;;8.35;;
27977;SDS011;15314;49.248;6.968;2023-07-16T02:25:58;11.45;;;8.60;;
27977;SDS011;15314;49.248;6.968;2023-07-16T02:26:59;11.80;;;8.95;;
27977;SDS011;15314;49.248;6.968;2023-07-16T02:28:00;11.77;;;8.77;;
27977;SDS011;15314;49.248;6.968;2023-07-16T02:29:01;9.75;;;8.98;;
27977;SDS011;15314;49.248;6.968;2023-07-16T02:30:02;9.98;;;9.13;;
27977;SDS011;15314;49.248;6.968;2023-07-16T02:31:03;13.25;;;8.48;;
27977;SDS011;15314;49.248;6.968;2023-07-16T02:32:04;9.13;;;8.32;;
27977;SDS011;15314;49.248;6.968;2023-07-16T02:33:04;12.13;;;8.85;;
27977;SDS011;15314;49.248;6.968;2023-07-16T02:34:05;11.95;;;9.02;;
27977;SDS011;15314;49.248;6.968;2023-07-16T02:35:07;8.75;;;7.97;;
27977;SDS011;15314;49.248;6.968;2023-07-16T02:36:08;8.57;;;7.85;;
27977;SDS011;15314;49.248;6.968;2023-07-16T02:37:09;10.95;;;8.70;;
27977;SDS011;15314;49.248;6.968;2023-07-16T02:38:09;9.52;;;8.68;;
27977;SDS011;15314;49.248;6.968;2023-07-16T02:39:10;12.35;;;9.00;;
27977;SDS011;15314;49.248;6.968;2023-07-16T02:40:11;9.40;;;8.43;;
27977;SDS011;15314;49.248;6.968;2023-07-16T02:41:11;11.40;;;9.10;;
27977;SDS011;15314;49.248;6.968;2023-07-16T02:42:12;9.88;;;9.00;;
27977;SDS011;15314;49.248;6.968;2023-07-16T02:43:13;9.68;;;8.80;;
27977;SDS011;15314;49.248;6.968;2023-07-16T02:44:14;11.63;;;9.70;;
27977;SDS011;15314;49.248;6.968;2023-07-16T02:45:14;9.48;;;8.73;;
27977;SDS011;15314;49.248;6.968;2023-07-16T02:46:15;12.52;;;8.98;;
27977;SDS011;15314;49.248;6.968;2023-07-16T02:47:16;10.65;;;9.55;;
27977;SDS011;15314;49.248;6.968;2023-07-16T02:48:16;9.10;;;8.20;;
27977;SDS011;15314;49.248;6.968;2023-07-16T02:49:17;11.57;;;8.90;;
27977;SDS011;15314;49.248;6.968;2023-07-16T02:50:18;10.82;;;8.90;;
27977;SDS011;15314;49.248;6.968;2023-07-16T02:51:18;11.07;;;9.40;;
27977;SDS011;15314;49.248;6.968;2023-07-16T02:52:19;11.70;;;8.95;;
27977;SDS011;15314;49.248;6.968;2023-07-16T02:53:20;10.82;;;9.68;;
27977;SDS011;15314;49.248;6.968;2023-07-16T02:54:20;12.85;;;8.95;;
27977;SDS011;15314;49.248;6.968;2023-07-16T02:55:21;10.55;;;8.82;;
27977;SDS011;15314;49.248;6.968;2023-07-16T02:56:21;9.23;;;8.45;;
27977;SDS011;15314;49.248;6.968;2023-07-16T02:57:22;10.60;;;8.70;;
27977;SDS011;15314;49.248;6.968;2023-07-16T02:58:23;9.07;;;8.27;;
27977;SDS011;15314;49.248;6.968;2023-07-16T02:59:23;13.77;;;9.00;;
27977;SDS011;15314;49.248;6.968;2023-07-16T03:00:24;9.70;;;8.85;;
27977;SDS011;15314;49.248;6.968;2023-07-16T03:01:25;9.45;;;8.40;;
27977;SDS011;15314;49.248;6.968;2023-07-16T03:02:26;9.82;;;8.85;;
27977;SDS011;15314;49.248;6.968;2023-07-16T03:03:26;9.80;;;8.82;;
27977;SDS011;15314;49.248;6.968;2023-07-16T03:04:27;12.57;;;9.73;;
27977;SDS011;15314;49.248;6.968;2023-07-16T03:05:28;12.60;;;8.55;;
27977;SDS011;15314;49.248;6.968;2023-07-16T03:06:28;15.55;;;9.20;;
27977;SDS011;15314;49.248;6.968;2023-07-16T03:07:29;10.70;;;8.63;;
27977;SDS011;15314;49.248;6.968;2023-07-16T03:08:29;9.70;;;8.70;;
27977;SDS011;15314;49.248;6.968;2023-07-16T03:09:31;12.60;;;8.77;;
27977;SDS011;15314;49.248;6.968;2023-07-16T03:10:32;10.27;;;9.20;;
27977;SDS011;15314;49.248;6.968;2023-07-16T03:11:32;11.95;;;8.63;;
27977;SDS011;15314;49.248;6.968;2023-07-16T03:12:33;10.45;;;9.18;;
27977;SDS011;15314;49.248;6.968;2023-07-16T03:13:34;12.68;;;8.80;;
27977;SDS011;15314;49.248;6.968;2023-07-16T03:14:34;9.90;;;8.80;;
27977;SDS011;15314;49.248;6.968;2023-07-16T03:15:35;12.27;;;9.00;;
27977;SDS011;15314;49.248;6.968;2023-07-16T03:16:36;12.85;;;8.93;;
27977;SDS011;15314;49.248;6.968;2023-07-16T03:17:37;11.80;;;9.32;;
27977;SDS011;15314;49.248;6.968;2023-07-16T03:18:37;10.25;;;9.27;;
27977;SDS011;15314;49.248;6.968;2023-07-16T03:19:38;11.70;;;9.77;;
27977;SDS011;15314;49.248;6.968;2023-07-16T03:20:38;11.60;;;9.30;;
27977;SDS011;15314;49.248;6.968;2023-07-16T03:21:39;10.02;;;9.32;;
27977;SDS011;15314;49.248;6.968;2023-07-16T03:22:40;10.45;;;9.32;;
27977;SDS011;15314;49.248;6.968;2023-07-16T03:23:40;13.95;;;9.25;;
27977;SDS011;15314;49.248;6.968;2023-07-16T03:24:41;8.80;;;8.15;;
27977;SDS011;15314;49.248;6.968;2023-07-16T03:25:42;11.90;;;8.82;;
27977;SDS011;15314;49.248;6.968;2023-07-16T03:26:42;13.57;;;9.45;;
27977;SDS011;15314;49.248;6.968;2023-07-16T03:27:43;10.75;;;9.13;;
27977;SDS011;15314;49.248;6.968;2023-07-16T03:28:44;14.45;;;9.45;;
27977;SDS011;15314;49.248;6.968;2023-07-16T03:29:44;9.82;;;8.50;;
27977;SDS011;15314;49.248;6.968;2023-07-16T03:30:46;9.70;;;8.77;;
27977;SDS011;15314;49.248;6.968;2023-07-16T03:31:47;10.88;;;8.43;;
27977;SDS011;15314;49.248;6.968;2023-07-16T03:32:48;11.48;;;9.15;;
27977;SDS011;15314;49.248;6.968;2023-07-16T03:33:49;9.55;;;8.75;;
27977;SDS011;15314;49.248;6.968;2023-07-16T03:34:49;10.73;;;8.20;;
27977;SDS011;15314;49.248;6.968;2023-07-16T03:35:50;10.32;;;9.18;;
27977;SDS011;15314;49.248;6.968;2023-07-16T03:36:51;10.95;;;8.68;;
27977;SDS011;15314;49.248;6.968;2023-07-16T03:37:52;12.07;;;8.50;;
27977;SDS011;15314;49.248;6.968;2023-07-16T03:38:53;9.55;;;8.60;;
27977;SDS011;15314;49.248;6.968;2023-07-16T03:39:53;9.38;;;8.48;;
27977;SDS011;15314;49.248;6.968;2023-07-16T03:40:54;11.90;;;8.95;;
27977;SDS011;15314;49.248;6.968;2023-07-16T03:41:55;9.70;;;8.55;;
27977;SDS011;15314;49.248;6.968;2023-07-16T03:42:55;10.02;;;9.20;;
27977;SDS011;15314;49.248;6.968;2023-07-16T03:43:56;13.25;;;9.52;;
27977;SDS011;15314;49.248;6.968;2023-07-16T03:44:57;11.70;;;9.25;;
27977;SDS011;15314;49.248;6.968;2023-07-16T03:45:57;10.93;;;8.82;;
27977;SDS011;15314;49.248;6.968;2023-07-16T03:46:58;14.68;;;9.10;;
27977;SDS011;15314;49.248;6.968;2023-07-16T03:47:59;16.30;;;9.32;;
27977;SDS011;15314;49.248;6.968;2023-07-16T03:49:00;9.77;;;8.85;;
27977;SDS011;15314;49.248;6.968;2023-07-16T03:50:01;11.85;;;9.55;;
27977;SDS011;15314;49.248;6.968;2023-07-16T03:51:02;11.55;;;9.25;;
27977;SDS011;15314;49.248;6.968;2023-07-16T03:52:02;9.98;;;9.05;;
27977;SDS011;15314;49.248;6.968;2023-07-16T03:53:03;13.18;;;9.63;;
27977;SDS011;15314;49.248;6.968;2023-07-16T03:54:04;14.75;;;8.82;;
27977;SDS011;15314;49.248;6.968;2023-07-16T03:55:05;11.13;;;9.88;;
27977;SDS011;15314;49.248;6.968;2023-07-16T03:56:06;11.00;;;9.88;;
27977;SDS011;15314;49.248;6.968;2023-07-16T03:57:07;10.98;;;9.75;;
27977;SDS011;15314;49.248;6.968;2023-07-16T03:58:08;11.52;;;10.38;;
27977;SDS011;15314;49.248;6.968;2023-07-16T03:59:08;13.23;;;9.82;;
27977;SDS011;15314;49.248;6.968;2023-07-16T04:00:09;10.95;;;9.93;;
27977;SDS011;15314;49.248;6.968;2023-07-16T04:01:10;13.52;;;10.27;;
27977;SDS011;15314;49.248;6.968;2023-07-16T04:02:11;12.02;;;10.43;;
27977;SDS011;15314;49.248;6.968;2023-07-16T04:03:11;11.50;;;10.48;;
27977;SDS011;15314;49.248;6.968;2023-07-16T04:04:12;15.80;;;10.70;;
27977;SDS011;15314;49.248;6.968;2023-07-16T04:05:13;12.95;;;10.73;;
27977;SDS011;15314;49.248;6.968;2023-07-16T04:06:14;12.35;;;10.43;;
27977;SDS011;15314;49.248;6.968;2023-07-16T04:07:14;11.95;;;10.60;;
27977;SDS011;15314;49.248;6.968;2023-07-16T04:08:15;11.88;;;10.80;;
27977;SDS011;15314;49.248;6.968;2023-07-16T04:09:16;11.82;;;10.35;;
27977;SDS011;15314;49.248;6.968;2023-07-16T04:10:16;11.05;;;9.70;;
27977;SDS011;15314;49.248;6.968;2023-07-16T04:11:17;11.48;;;10.35;;
27977;SDS011;15314;49.248;6.968;2023-07-16T04:12:18;12.38;;;10.05;;
27977;SDS011;15314;49.248;6.968;2023-07-16T04:13:19;11.15;;;9.80;;
27977;SDS011;15314;49.248;6.968;2023-07-16T04:14:19;12.20;;;10.57;;
27977;SDS011;15314;49.248;6.968;2023-07-16T04:15:20;13.75;;;10.45;;
27977;SDS011;15314;49.248;6.968;2023-07-16T04:16:21;13.15;;;10.07;;
27977;SDS011;15314;49.248;6.968;2023-07-16T04:17:21;14.02;;;10.05;;
27977;SDS011;15314;49.248;6.968;2023-07-16T04:18:22;10.88;;;9.88;;
27977;SDS011;15314;49.248;6.968;2023-07-16T04:19:23;13.70;;;10.48;;
27977;SDS011;15314;49.248;6.968;2023-07-16T04:20:24;11.98;;;10.18;;
27977;SDS011;15314;49.248;6.968;2023-07-16T04:21:25;14.77;;;10.88;;
27977;SDS011;15314;49.248;6.968;2023-07-16T04:22:25;11.43;;;10.32;;
27977;SDS011;15314;49.248;6.968;2023-07-16T04:23:26;17.05;;;10.05;;
27977;SDS011;15314;49.248;6.968;2023-07-16T04:24:27;12.02;;;10.65;;
27977;SDS011;15314;49.248;6.968;2023-07-16T04:25:27;15.88;;;10.07;;
27977;SDS011;15314;49.248;6.968;2023-07-16T04:26:28;12.80;;;10.00;;
27977;SDS011;15314;49.248;6.968;2023-07-16T04:27:29;10.68;;;9.60;;
27977;SDS011;15314;49.248;6.968;2023-07-16T04:28:30;11.02;;;10.23;;
27977;SDS011;15314;49.248;6.968;2023-07-16T04:29:30;11.00;;;9.95;;
27977;SDS011;15314;49.248;6.968;2023-07-16T04:30:31;12.52;;;10.23;;
27977;SDS011;15314;49.248;6.968;2023-07-16T04:31:32;15.68;;;10.35;;
27977;SDS011;15314;49.248;6.968;2023-07-16T04:32:32;15.07;;;10.48;;
27977;SDS011;15314;49.248;6.968;2023-07-16T04:33:33;11.68;;;10.52;;
27977;SDS011;15314;49.248;6.968;2023-07-16T04:34:34;11.25;;;10.13;;
27977;SDS011;15314;49.248;6.968;2023-07-16T04:35:34;11.20;;;10.02;;
27977;SDS011;15314;49.248;6.968;2023-07-16T04:36:35;11.20;;;10.23;;
27977;SDS011;15314;49.248;6.968;2023-07-16T04:37:36;11.77;;;10.60;;
27977;SDS011;15314;49.248;6.968;2023-07-16T04:38:36;12.85;;;10.52;;
27977;SDS011;15314;49.248;6.968;2023-07-16T04:39:37;13.88;;;10.20;;
27977;SDS011;15314;49.248;6.968;2023-07-16T04:40:38;14.68;;;10.27;;
27977;SDS011;15314;49.248;6.968;2023-07-16T04:41:38;11.10;;;10.00;;
27977;SDS011;15314;49.248;6.968;2023-07-16T04:42:39;10.50;;;9.43;;
27977;SDS011;15314;49.248;6.968;2023-07-16T04:43:40;14.15;;;10.75;;
27977;SDS011;15314;49.248;6.968;2023-07-16T04:44:40;13.48;;;10.32;;
27977;SDS011;15314;49.248;6.968;2023-07-16T04:45:43;12.55;;;10.30;;
27977;SDS011;15314;49.248;6.968;2023-07-16T04:46:46;10.95;;;10.05;;
27977;SDS011;15314;49.248;6.968;2023-07-16T04:47:47;10.50;;;9.60;;
27977;SDS011;15314;49.248;6.968;2023-07-16T04:48:48;16.23;;;10.15;;
27977;SDS011;15314;49.248;6.968;2023-07-16T04:49:48;11.20;;;10.10;;
27977;SDS011;15314;49.248;6.968;2023-07-16T04:50:50;14.30;;;10.25;;
27977;SDS011;15314;49.248;6.968;2023-07-16T04:51:52;15.32;;;9.82;;
27977;SDS011;15314;49.248;6.968;2023-07-16T04:52:53;13.10;;;10.40;;
27977;SDS011;15314;49.248;6.968;2023-07-16T04:53:53;10.75;;;9.18;;
27977;SDS011;15314;49.248;6.968;2023-07-16T04:54:54;12.82;;;10.40;;
27977;SDS011;15314;49.248;6.968;2023-07-16T04:55:55;13.52;;;10.20;;
27977;SDS011;15314;49.248;6.968;2023-07-16T04:56:57;11.23;;;9.98;;
27977;SDS011;15314;49.248;6.968;2023-07-16T04:57:57;15.57;;;10.73;;
27977;SDS011;15314;49.248;6.968;2023-07-16T04:58:58;12.40;;;11.02;;
27977;SDS011;15314;49.248;6.968;2023-07-16T04:59:58;11.73;;;9.45;;
27977;SDS011;15314;49.248;6.968;2023-07-16T05:00:59;12.35;;;10.10;;
27977;SDS011;15314;49.248;6.968;2023-07-16T05:02:01;12.05;;;9.80;;
27977;SDS011;15314;49.248;6.968;2023-07-16T05:03:04;11.40;;;9.68;;
27977;SDS011;15314;49.248;6.968;2023-07-16T05:04:05;17.27;;;9.77;;
27977;SDS011;15314;49.248;6.968;2023-07-16T05:05:08;11.88;;;10.35;;
27977;SDS011;15314;49.248;6.968;2023-07-16T05:06:08;12.55;;;10.23;;
27977;SDS011;15314;49.248;6.968;2023-07-16T05:07:09;10.95;;;9.85;;
27977;SDS011;15314;49.248;6.968;2023-07-16T05:08:10;15.65;;;10.38;;
27977;SDS011;15314;49.248;6.968;2023-07-16T05:09:11;13.80;;;10.75;;
27977;SDS011;15314;49.248;6.968;2023-07-16T05:10:11;14.77;;;9.95;;
27977;SDS011;15314;49.248;6.968;2023-07-16T05:11:12;12.23;;;9.77;;
27977;SDS011;15314;49.248;6.968;2023-07-16T05:12:13;10.68;;;9.68;;
27977;SDS011;15314;49.248;6.968;2023-07-16T05:13:13;11.93;;;10.15;;
27977;SDS011;15314;49.248;6.968;2023-07-16T05:14:15;13.25;;;9.93;;
27977;SDS011;15314;49.248;6.968;2023-07-16T05:15:16;12.10;;;9.32;;
27977;SDS011;15314;49.248;6.968;2023-07-16T05:16:16;10.57;;;9.18;;
27977;SDS011;15314;49.248;6.968;2023-07-16T05:17:17;11.98;;;9.57;;
27977;SDS011;15314;49.248;6.968;2023-07-16T05:18:18;12.05;;;9.95;;
27977;SDS011;15314;49.248;6.968;2023-07-16T05:19:19;11.05;;;10.13;;
27977;SDS011;15314;49.248;6.968;2023-07-16T05:20:19;11.85;;;9.50;;
27977;SDS011;15314;49.248;6.968;2023-07-16T05:21:20;11.88;;;10.25;;
27977;SDS011;15314;49.248;6.968;2023-07-16T05:22:21;9.93;;;9.02;;
27977;SDS011;15314;49.248;6.968;2023-07-16T05:23:21;13.10;;;9.70;;
27977;SDS011;15314;49.248;6.968;2023-07-16T05:24:22;11.25;;;9.50;;
27977;SDS011;15314;49.248;6.968;2023-07-16T05:25:23;15.32;;;9.30;;
27977;SDS011;15314;49.248;6.968;2023-07-16T05:26:24;9.82;;;9.02;;
27977;SDS011;15314;49.248;6.968;2023-07-16T05:27:24;11.00;;;9.30;;
27977;SDS011;15314;49.248;6.968;2023-07-16T05:28:25;14.40;;;9.73;;
27977;SDS011;15314;49.248;6.968;2023-07-16T05:29:26;10.60;;;9.60;;
27977;SDS011;15314;49.248;6.968;2023-07-16T05:30:26;12.23;;;9.52;;
27977;SDS011;15314;49.248;6.968;2023-07-16T05:31:27;11.43;;;9.73;;
27977;SDS011;15314;49.248;6.968;2023-07-16T05:32:28;12.32;;;8.52;;
27977;SDS011;15314;49.248;6.968;2023-07-16T05:33:28;12.57;;;9.73;;
27977;SDS011;15314;49.248;6.968;2023-07-16T05:34:31;10.68;;;9.32;;
27977;SDS011;15314;49.248;6.968;2023-07-16T05:35:31;14.77;;;9.13;;
27977;SDS011;15314;49.248;6.968;2023-07-16T05:36:32;11.27;;;10.20;;
27977;SDS011;15314;49.248;6.968;2023-07-16T05:37:33;12.80;;;9.52;;
27977;SDS011;15314;49.248;6.968;2023-07-16T05:38:34;10.63;;;9.65;;
27977;SDS011;15314;49.248;6.968;2023-07-16T05:39:34;13.32;;;10.20;;
27977;SDS011;15314;49.248;6.968;2023-07-16T05:40:35;12.07;;;9.70;;
27977;SDS011;15314;49.248;6.968;2023-07-16T05:41:36;17.85;;;9.90;;
27977;SDS011;15314;49.248;6.968;2023-07-16T05:42:36;10.20;;;9.23;;
27977;SDS011;15314;49.248;6.968;2023-07-16T05:43:37;10.65;;;9.50;;
27977;SDS011;15314;49.248;6.968;2023-07-16T05:44:38;14.52;;;9.55;;
27977;SDS011;15314;49.248;6.968;2023-07-16T05:45:38;10.88;;;9.50;;
27977;SDS011;15314;49.248;6.968;2023-07-16T05:46:39;12.23;;;9.43;;
27977;SDS011;15314;49.248;6.968;2023-07-16T05:47:40;12.98;;;9.35;;
27977;SDS011;15314;49.248;6.968;2023-07-16T05:48:40;10.48;;;9.45;;
27977;SDS011;15314;49.248;6.968;2023-07-16T05:49:41;10.73;;;9.55;;
27977;SDS011;15314;49.248;6.968;2023-07-16T05:50:43;10.65;;;8.98;;
27977;SDS011;15314;49.248;6.968;2023-07-16T05:51:45;10.27;;;9.27;;
27977;SDS011;15314;49.248;6.968;2023-07-16T05:52:45;9.50;;;8.55;;
27977;SDS011;15314;49.248;6.968;2023-07-16T05:53:48;13.52;;;8.55;;
27977;SDS011;15314;49.248;6.968;2023-07-16T05:54:48;10.52;;;8.45;;
27977;SDS011;15314;49.248;6.968;2023-07-16T05:55:49;9.35;;;8.55;;
27977;SDS011;15314;49.248;6.968;2023-07-16T05:56:52;9.85;;;8.80;;
27977;SDS011;15314;49.248;6.968;2023-07-16T05:57:53;10.40;;;9.07;;
27977;SDS011;15314;49.248;6.968;2023-07-16T05:58:53;11.52;;;8.68;;
27977;SDS011;15314;49.248;6.968;2023-07-16T05:59:54;13.02;;;9.52;;
27977;SDS011;15314;49.248;6.968;2023-07-16T06:00:55;15.15;;;9.65;;
27977;SDS011;15314;49.248;6.968;2023-07-16T06:01:56;14.85;;;9.73;;
27977;SDS011;15314;49.248;6.968;2023-07-16T06:02:58;10.90;;;8.90;;
27977;SDS011;15314;49.248;6.968;2023-07-16T06:03:58;10.55;;;9.50;;
27977;SDS011;15314;49.248;6.968;2023-07-16T06:04:59;12.18;;;9.50;;
27977;SDS011;15314;49.248;6.968;2023-07-16T06:06:00;11.10;;;9.57;;
27977;SDS011;15314;49.248;6.968;2023-07-16T06:07:01;10.18;;;9.15;;
27977;SDS011;15314;49.248;6.968;2023-07-16T06:08:02;10.65;;;9.55;;
27977;SDS011;15314;49.248;6.968;2023-07-16T06:09:03;10.95;;;9.65;;